createdAt,value
2023-01-29T00:00:01.319Z,3.33
2023-01-29T00:02:43.140Z,3.20
2023-01-29T00:05:26.893Z,3.85
2023-01-29T00:07:59.281Z,3.55
2023-01-29T00:10:29.621Z,3.90
2023-01-29T00:12:59.346Z,4.00
2023-01-29T00:15:30.008Z,3.65
2023-01-29T00:18:00.816Z,3.63
2023-01-29T00:20:30.750Z,4.05
2023-01-29T00:23:00.716Z,3.65
2023-01-29T00:25:30.670Z,3.80
2023-01-29T00:28:02.020Z,3.97
2023-01-29T00:30:33.650Z,4.00
2023-01-29T00:33:03.557Z,3.58
2023-01-29T00:35:37.691Z,3.70
2023-01-29T00:38:08.608Z,3.88
2023-01-29T00:41:13.297Z,3.75
2023-01-29T00:44:01.978Z,3.72
2023-01-29T00:46:32.790Z,3.85
2023-01-29T00:49:03.019Z,4.32
2023-01-29T00:51:35.232Z,3.72
2023-01-29T00:54:07.843Z,3.83
2023-01-29T00:56:39.145Z,4.38
2023-01-29T00:59:09.473Z,4.72
2023-01-29T01:02:00.201Z,4.32
2023-01-29T01:04:32.222Z,4.88
2023-01-29T01:07:04.522Z,4.25
2023-01-29T01:09:56.499Z,4.68
2023-01-29T01:12:27.563Z,4.60
2023-01-29T01:14:58.044Z,4.35
2023-01-29T01:17:28.707Z,4.28
2023-01-29T01:20:00.000Z,4.00
2023-01-29T01:22:30.995Z,4.60
2023-01-29T01:25:01.199Z,5.35
2023-01-29T01:27:31.627Z,4.80
2023-01-29T01:30:01.900Z,4.38
2023-01-29T01:32:32.662Z,4.40
2023-01-29T01:35:04.201Z,4.30
2023-01-29T01:37:35.651Z,4.95
2023-01-29T01:40:19.388Z,5.45
2023-01-29T01:42:57.811Z,6.78
2023-01-29T01:45:33.297Z,7.18
2023-01-29T01:50:56.577Z,7.18
2023-01-29T01:53:42.246Z,7.32
2023-01-29T01:56:21.596Z,8.55
2023-01-29T01:59:00.027Z,9.85
2023-01-29T02:01:30.624Z,10.05
2023-01-29T02:04:43.242Z,8.93
2023-01-29T02:07:35.416Z,8.85
2023-01-29T02:10:35.922Z,9.13
2023-01-29T02:13:07.866Z,9.77
2023-01-29T02:15:38.734Z,9.27
2023-01-29T02:18:09.458Z,9.05
2023-01-29T02:20:44.606Z,9.13
2023-01-29T02:23:28.494Z,8.07
2023-01-29T02:26:22.635Z,9.15
2023-01-29T02:28:57.213Z,9.50
2023-01-29T02:31:57.438Z,9.88
2023-01-29T02:34:53.070Z,8.45
2023-01-29T02:37:36.088Z,8.38
2023-01-29T02:40:32.481Z,8.10
2023-01-29T02:43:36.706Z,7.85
2023-01-29T02:46:12.466Z,7.68
2023-01-29T02:49:07.210Z,8.05
2023-01-29T02:51:47.111Z,7.15
2023-01-29T02:54:33.143Z,8.30
2023-01-29T02:57:17.318Z,7.28
2023-01-29T03:00:17.936Z,7.53
2023-01-29T03:05:30.348Z,6.03
2023-01-29T03:08:11.391Z,6.75
2023-01-29T03:11:03.909Z,6.88
2023-01-29T03:13:44.234Z,6.57
2023-01-29T03:16:20.793Z,6.82
2023-01-29T03:19:00.510Z,6.63
2023-01-29T03:21:56.213Z,6.72
2023-01-29T03:24:52.207Z,7.20
2023-01-29T03:27:50.833Z,6.80
2023-01-29T03:30:41.918Z,7.05
2023-01-29T03:33:29.281Z,6.43
2023-01-29T03:36:07.684Z,7.10
2023-01-29T03:38:38.184Z,7.30
2023-01-29T03:41:30.324Z,6.63
2023-01-29T03:44:09.456Z,7.32
2023-01-29T03:47:05.535Z,7.63
2023-01-29T03:50:02.238Z,8.15
2023-01-29T03:52:44.762Z,7.60
2023-01-29T03:55:45.449Z,7.53
2023-01-29T03:58:37.203Z,7.82
2023-01-29T04:01:27.668Z,9.07
2023-01-29T04:04:28.277Z,8.27
2023-01-29T04:07:05.799Z,8.45
2023-01-29T04:09:41.129Z,8.63
2023-01-29T04:12:13.750Z,8.93
2023-01-29T04:14:47.553Z,8.77
2023-01-29T04:17:26.452Z,8.98
2023-01-29T04:20:20.122Z,9.30
2023-01-29T04:22:52.460Z,9.02
2023-01-29T04:25:27.716Z,8.25
2023-01-29T04:28:27.598Z,8.77
2023-01-29T04:31:05.375Z,7.82
2023-01-29T04:33:41.383Z,8.52
2023-01-29T04:38:53.567Z,7.80
2023-01-29T04:41:45.943Z,7.55
2023-01-29T04:44:28.302Z,7.38
2023-01-29T04:47:29.706Z,7.45
2023-01-29T04:50:16.966Z,7.28
2023-01-29T04:53:21.149Z,7.03
2023-01-29T04:56:00.581Z,7.32
2023-01-29T04:58:34.991Z,7.72
2023-01-29T05:01:09.933Z,7.22
2023-01-29T05:03:44.995Z,7.55
2023-01-29T05:06:17.296Z,7.50
2023-01-29T05:08:49.030Z,7.75
2023-01-29T05:11:24.293Z,7.38
2023-01-29T05:13:56.285Z,7.15
2023-01-29T05:16:31.379Z,7.68
2023-01-29T05:19:02.469Z,7.53
2023-01-29T05:21:35.283Z,7.68
2023-01-29T05:24:22.512Z,6.95
2023-01-29T05:27:19.877Z,7.85
2023-01-29T05:29:50.665Z,7.28
2023-01-29T05:32:21.612Z,7.70
2023-01-29T05:34:51.805Z,7.65
2023-01-29T05:37:21.777Z,7.40
2023-01-29T05:39:52.012Z,7.75
2023-01-29T05:42:21.934Z,8.20
2023-01-29T05:44:53.103Z,7.75
2023-01-29T05:47:23.663Z,7.82
2023-01-29T05:49:54.251Z,7.70
2023-01-29T05:52:23.967Z,8.60
2023-01-29T05:54:54.372Z,8.07
2023-01-29T05:57:24.138Z,8.18
2023-01-29T05:59:55.130Z,7.80
2023-01-29T06:02:26.081Z,7.88
2023-01-29T06:04:56.277Z,7.13
2023-01-29T06:07:26.028Z,7.55
2023-01-29T06:09:56.558Z,7.55
2023-01-29T06:12:27.343Z,6.90
2023-01-29T06:14:58.759Z,7.45
2023-01-29T06:17:28.475Z,7.72
2023-01-29T06:19:58.634Z,7.28
2023-01-29T06:22:28.769Z,7.47
2023-01-29T06:24:58.686Z,7.43
2023-01-29T06:27:29.236Z,7.50
2023-01-29T06:30:00.887Z,8.00
2023-01-29T06:32:32.262Z,7.72
2023-01-29T06:35:02.446Z,7.60
2023-01-29T06:37:33.093Z,7.40
2023-01-29T06:40:04.287Z,7.43
2023-01-29T06:42:37.519Z,7.78
2023-01-29T06:45:09.601Z,7.13
2023-01-29T06:47:39.303Z,6.90
2023-01-29T06:50:11.278Z,6.93
2023-01-29T06:52:41.709Z,7.13
2023-01-29T06:55:12.508Z,6.88
2023-01-29T06:57:42.773Z,7.28
2023-01-29T07:00:13.194Z,6.93
2023-01-29T07:02:44.459Z,6.85
2023-01-29T07:05:15.289Z,7.90
2023-01-29T07:07:46.039Z,7.68
2023-01-29T07:10:16.461Z,7.57
2023-01-29T07:12:47.942Z,6.97
2023-01-29T07:15:21.426Z,7.25
2023-01-29T07:18:17.889Z,7.05
2023-01-29T07:20:48.070Z,7.13
2023-01-29T07:23:19.469Z,7.45
2023-01-29T07:25:53.661Z,7.50
2023-01-29T07:28:23.944Z,7.28
2023-01-29T07:31:01.191Z,7.68
2023-01-29T07:33:32.429Z,7.80
2023-01-29T07:36:02.795Z,8.05
2023-01-29T07:38:32.924Z,7.00
2023-01-29T07:41:03.355Z,7.50
2023-01-29T07:43:34.498Z,7.90
2023-01-29T07:46:05.899Z,7.57
2023-01-29T07:48:37.808Z,7.88
2023-01-29T07:51:08.718Z,8.18
2023-01-29T07:53:38.532Z,8.35
2023-01-29T07:56:09.852Z,8.65
2023-01-29T07:58:40.511Z,7.80
2023-01-29T08:01:10.574Z,7.63
2023-01-29T08:03:40.716Z,8.13
2023-01-29T08:06:11.756Z,8.75
2023-01-29T08:08:42.568Z,8.30
2023-01-29T08:11:12.495Z,8.02
2023-01-29T08:13:42.827Z,8.43
2023-01-29T08:16:12.853Z,8.68
2023-01-29T08:18:48.843Z,9.57
2023-01-29T08:21:19.471Z,8.90
2023-01-29T08:23:49.520Z,9.32
2023-01-29T08:26:20.072Z,9.55
2023-01-29T08:28:50.922Z,8.65
2023-01-29T08:31:22.402Z,9.30
2023-01-29T08:33:54.908Z,8.55
2023-01-29T08:36:25.049Z,8.60
2023-01-29T08:38:55.753Z,9.45
2023-01-29T08:41:26.972Z,10.90
2023-01-29T08:43:58.479Z,9.93
2023-01-29T08:46:28.432Z,10.45
2023-01-29T08:48:59.963Z,11.00
2023-01-29T08:51:30.849Z,12.38
2023-01-29T08:54:00.911Z,11.85
2023-01-29T08:56:31.099Z,11.68
2023-01-29T08:59:01.945Z,12.15
2023-01-29T09:01:32.787Z,12.25
2023-01-29T09:04:02.610Z,13.65
2023-01-29T09:06:33.428Z,13.15
2023-01-29T09:09:05.319Z,13.23
2023-01-29T09:11:35.712Z,13.43
2023-01-29T09:14:06.782Z,12.52
2023-01-29T09:16:37.226Z,13.60
2023-01-29T09:19:07.688Z,12.90
2023-01-29T09:21:39.114Z,13.85
2023-01-29T09:24:09.639Z,14.15
2023-01-29T09:26:41.230Z,14.63
2023-01-29T09:29:13.758Z,15.45
2023-01-29T09:31:44.208Z,16.00
2023-01-29T09:34:14.622Z,17.00
2023-01-29T09:36:45.465Z,18.17
2023-01-29T09:39:16.391Z,18.42
2023-01-29T09:42:05.875Z,18.23
2023-01-29T09:44:54.986Z,18.02
2023-01-29T09:47:28.190Z,18.48
2023-01-29T09:53:30.584Z,17.98
2023-01-29T09:56:07.634Z,17.33
2023-01-29T09:58:41.230Z,15.55
2023-01-29T10:01:19.413Z,16.98
2023-01-29T10:04:10.453Z,15.88
2023-01-29T10:06:45.625Z,14.60
2023-01-29T10:10:08.853Z,13.90
2023-01-29T10:13:12.939Z,13.88
2023-01-29T10:16:02.821Z,13.63
2023-01-29T10:18:54.334Z,13.45
2023-01-29T10:21:34.155Z,12.77
2023-01-29T10:24:23.206Z,13.00
2023-01-29T10:26:55.311Z,12.98
2023-01-29T10:29:29.304Z,13.43
2023-01-29T10:32:07.093Z,12.07
2023-01-29T10:34:41.609Z,11.95
2023-01-29T10:37:25.363Z,11.07
2023-01-29T10:39:55.739Z,11.85
2023-01-29T10:42:32.918Z,12.30
2023-01-29T10:45:19.571Z,12.40
2023-01-29T10:48:08.917Z,12.98
2023-01-29T10:50:54.941Z,12.07
2023-01-29T10:53:40.798Z,11.98
2023-01-29T10:56:30.523Z,13.05
2023-01-29T10:59:08.998Z,11.32
2023-01-29T11:01:42.808Z,11.02
2023-01-29T11:04:14.660Z,11.88
2023-01-29T11:06:45.612Z,12.15
2023-01-29T11:09:15.502Z,11.10
2023-01-29T11:11:49.852Z,10.82
2023-01-29T11:14:29.380Z,11.55
2023-01-29T11:17:03.451Z,10.43
2023-01-29T11:19:42.669Z,10.32
2023-01-29T11:22:17.018Z,10.38
2023-01-29T11:24:49.558Z,9.88
2023-01-29T11:27:30.952Z,10.93
2023-01-29T11:32:35.190Z,9.43
2023-01-29T11:35:18.273Z,10.63
2023-01-29T11:37:49.412Z,9.05
2023-01-29T11:40:40.274Z,10.43
2023-01-29T11:43:32.385Z,10.15
2023-01-29T11:46:10.150Z,9.70
2023-01-29T11:48:59.456Z,9.50
2023-01-29T11:51:39.454Z,8.82
2023-01-29T11:54:21.164Z,9.20
2023-01-29T11:56:52.890Z,9.63
2023-01-29T11:59:44.200Z,9.60
2023-01-29T12:02:24.072Z,9.13
2023-01-29T12:05:00.114Z,9.32
2023-01-29T12:07:32.987Z,9.55
2023-01-29T12:10:04.887Z,8.52
2023-01-29T12:12:43.439Z,9.90
2023-01-29T12:15:20.698Z,8.93
2023-01-29T12:18:00.006Z,8.10
2023-01-29T12:20:44.413Z,10.73
2023-01-29T12:23:27.566Z,10.95
2023-01-29T12:26:04.211Z,11.32
2023-01-29T12:28:37.472Z,11.05
2023-01-29T12:31:26.077Z,9.80
2023-01-29T12:34:17.775Z,11.20
2023-01-29T12:37:02.329Z,9.75
2023-01-29T12:39:34.029Z,9.45
2023-01-29T12:42:14.467Z,10.00
2023-01-29T12:44:54.109Z,10.13
2023-01-29T12:47:34.141Z,10.68
2023-01-29T12:50:20.331Z,9.73
2023-01-29T12:53:03.839Z,9.48
2023-01-29T12:55:45.825Z,9.35
2023-01-29T12:58:23.536Z,8.38
2023-01-29T13:01:00.194Z,9.55
2023-01-29T13:03:36.645Z,8.93
2023-01-29T13:06:16.493Z,8.60
2023-01-29T13:09:09.616Z,8.15
2023-01-29T13:14:32.997Z,8.55
2023-01-29T13:17:34.984Z,7.93
2023-01-29T13:20:28.040Z,8.15
2023-01-29T13:23:14.677Z,9.10
2023-01-29T13:25:46.069Z,9.48
2023-01-29T13:28:23.965Z,8.68
2023-01-29T13:31:15.427Z,8.23
2023-01-29T13:33:54.063Z,7.10
2023-01-29T13:36:30.339Z,7.10
2023-01-29T13:39:17.605Z,7.60
2023-01-29T13:41:48.174Z,8.32
2023-01-29T13:44:41.521Z,8.35
2023-01-29T13:47:23.490Z,6.93
2023-01-29T13:50:02.387Z,7.57
2023-01-29T13:52:58.760Z,8.27
2023-01-29T13:55:34.053Z,7.43
2023-01-29T13:58:06.552Z,8.05
2023-01-29T14:00:37.339Z,5.72
2023-01-29T14:03:13.523Z,7.57
2023-01-29T14:06:00.854Z,11.20
2023-01-29T14:08:39.281Z,9.35
2023-01-29T14:11:18.910Z,7.97
2023-01-29T14:13:53.602Z,7.57
2023-01-29T14:16:38.937Z,7.85
2023-01-29T14:19:24.305Z,7.63
2023-01-29T14:21:55.044Z,6.65
2023-01-29T14:24:29.566Z,5.53
2023-01-29T14:27:00.614Z,4.88
2023-01-29T14:29:35.122Z,5.07
2023-01-29T14:32:08.453Z,4.70
2023-01-29T14:34:49.446Z,3.63
2023-01-29T14:37:22.374Z,3.13
2023-01-29T14:43:27.102Z,2.50
2023-01-29T14:45:57.166Z,2.72
2023-01-29T14:48:39.642Z,2.53
2023-01-29T14:51:18.830Z,2.45
2023-01-29T14:53:52.075Z,2.55
2023-01-29T14:56:42.939Z,2.60
2023-01-29T14:59:21.223Z,2.65
2023-01-29T15:01:59.455Z,2.05
2023-01-29T15:04:55.906Z,2.55
2023-01-29T15:08:19.681Z,2.13
2023-01-29T15:11:14.710Z,2.85
2023-01-29T15:14:04.961Z,2.72
2023-01-29T15:16:57.205Z,2.40
2023-01-29T15:19:49.234Z,2.55
2023-01-29T15:22:27.054Z,2.03
2023-01-29T15:25:20.055Z,2.38
2023-01-29T15:27:52.601Z,2.15
2023-01-29T15:30:35.136Z,1.92
2023-01-29T15:33:06.230Z,1.98
2023-01-29T15:35:39.464Z,1.85
2023-01-29T15:38:22.550Z,2.03
2023-01-29T15:40:56.163Z,2.15
2023-01-29T15:43:26.566Z,1.85
2023-01-29T15:46:00.236Z,1.73
2023-01-29T15:48:50.866Z,1.73
2023-01-29T15:51:24.116Z,1.50
2023-01-29T15:54:06.057Z,1.92
2023-01-29T15:56:42.173Z,1.75
2023-01-29T15:59:19.944Z,2.00
2023-01-29T16:01:52.301Z,2.00
2023-01-29T16:04:29.959Z,2.10
2023-01-29T16:07:03.042Z,2.30
2023-01-29T16:09:33.643Z,2.00
2023-01-29T16:12:04.442Z,2.58
2023-01-29T16:14:36.088Z,1.95
2023-01-29T16:17:29.180Z,2.20
2023-01-29T16:20:01.624Z,2.33
2023-01-29T16:22:35.720Z,2.15
2023-01-29T16:25:16.283Z,1.77
2023-01-29T16:27:46.959Z,1.92
2023-01-29T16:30:20.145Z,1.75
2023-01-29T16:32:53.182Z,1.73
2023-01-29T16:35:23.659Z,2.05
2023-01-29T16:38:02.281Z,2.20
2023-01-29T16:40:36.698Z,1.90
2023-01-29T16:43:20.661Z,1.70
2023-01-29T16:46:21.528Z,2.03
2023-01-29T16:48:52.437Z,1.65
2023-01-29T16:51:41.891Z,1.67
2023-01-29T16:54:20.355Z,1.67
2023-01-29T16:56:54.253Z,1.85
2023-01-29T16:59:33.217Z,2.13
2023-01-29T17:02:05.632Z,1.95
2023-01-29T17:04:36.123Z,1.80
2023-01-29T17:07:06.081Z,2.03
2023-01-29T17:09:39.903Z,1.88
2023-01-29T17:12:20.683Z,1.70
2023-01-29T17:15:00.852Z,2.00
2023-01-29T17:17:33.332Z,1.85
2023-01-29T17:20:18.724Z,1.73
2023-01-29T17:22:50.273Z,1.80
2023-01-29T17:25:23.215Z,1.80
2023-01-29T17:27:53.572Z,1.63
2023-01-29T17:30:29.673Z,2.15
2023-01-29T17:33:00.547Z,1.52
2023-01-29T17:35:30.918Z,1.48
2023-01-29T17:38:01.308Z,1.38
2023-01-29T17:41:06.422Z,1.50
2023-01-29T17:43:38.052Z,1.50
2023-01-29T17:46:11.760Z,1.80
2023-01-29T17:48:43.089Z,1.50
2023-01-29T17:51:17.924Z,1.25
2023-01-29T17:53:48.682Z,1.65
2023-01-29T17:56:24.697Z,1.50
2023-01-29T17:58:55.043Z,1.42
2023-01-29T18:01:24.827Z,1.30
2023-01-29T18:03:56.948Z,1.67
2023-01-29T18:06:32.558Z,1.45
2023-01-29T18:09:03.209Z,1.40
2023-01-29T18:11:34.169Z,0.93
2023-01-29T18:14:14.069Z,1.20
2023-01-29T18:16:46.364Z,1.00
2023-01-29T18:19:24.499Z,1.13
2023-01-29T18:21:55.399Z,1.10
2023-01-29T18:24:28.525Z,1.27
2023-01-29T18:26:59.000Z,0.90
2023-01-29T18:29:31.265Z,0.85
2023-01-29T18:32:01.577Z,0.90
2023-01-29T18:34:31.461Z,0.85
2023-01-29T18:37:02.038Z,0.93
2023-01-29T18:39:32.248Z,0.70
2023-01-29T18:42:03.269Z,0.90
2023-01-29T18:44:33.252Z,0.77
2023-01-29T18:47:02.978Z,0.88
2023-01-29T18:49:33.505Z,0.82
2023-01-29T18:52:03.635Z,0.80
2023-01-29T18:54:34.006Z,0.88
2023-01-29T18:57:14.580Z,0.70
2023-01-29T18:59:54.630Z,0.70
2023-01-29T19:02:24.823Z,0.73
2023-01-29T19:04:55.654Z,0.70
2023-01-29T19:07:26.879Z,0.68
2023-01-29T19:09:57.322Z,0.70
2023-01-29T19:12:27.164Z,0.77
2023-01-29T19:14:58.187Z,0.98
2023-01-29T19:17:30.404Z,1.13
2023-01-29T19:20:03.323Z,0.82
2023-01-29T19:22:34.687Z,1.20
2023-01-29T19:25:05.181Z,1.02
2023-01-29T19:27:36.784Z,0.95
2023-01-29T19:30:08.308Z,0.82
2023-01-29T19:32:38.941Z,0.93
2023-01-29T19:35:10.398Z,1.20
2023-01-29T19:37:41.299Z,1.00
2023-01-29T19:40:11.873Z,1.10
2023-01-29T19:42:43.678Z,1.20
2023-01-29T19:45:14.991Z,1.20
2023-01-29T19:47:45.914Z,1.13
2023-01-29T19:50:16.491Z,1.33
2023-01-29T19:52:51.378Z,1.40
2023-01-29T19:55:23.577Z,1.20
2023-01-29T19:57:55.447Z,1.13
2023-01-29T20:00:26.157Z,1.13
2023-01-29T20:02:56.091Z,1.00
2023-01-29T20:05:28.335Z,1.20
2023-01-29T20:07:58.939Z,1.23
2023-01-29T20:10:29.633Z,1.25
2023-01-29T20:12:59.348Z,1.40
2023-01-29T20:15:29.429Z,1.30
2023-01-29T20:18:00.133Z,1.40
2023-01-29T20:20:32.557Z,1.13
2023-01-29T20:23:04.171Z,1.10
2023-01-29T20:25:34.360Z,1.45
2023-01-29T20:28:04.334Z,1.30
2023-01-29T20:30:36.186Z,1.40
2023-01-29T20:33:07.889Z,1.70
2023-01-29T20:35:39.106Z,1.67
2023-01-29T20:38:09.337Z,1.10
2023-01-29T20:40:39.871Z,1.30
2023-01-29T20:43:11.064Z,1.58
2023-01-29T20:45:41.694Z,1.42
2023-01-29T20:48:11.880Z,1.15
2023-01-29T20:50:44.011Z,1.33
2023-01-29T20:53:15.130Z,1.25
2023-01-29T20:55:46.983Z,1.30
2023-01-29T20:58:17.373Z,1.50
2023-01-29T21:00:47.551Z,1.10
2023-01-29T21:03:19.117Z,1.27
2023-01-29T21:05:49.503Z,1.30
2023-01-29T21:08:19.718Z,1.25
2023-01-29T21:10:52.066Z,1.13
2023-01-29T21:13:23.214Z,1.20
2023-01-29T21:15:53.697Z,1.40
2023-01-29T21:18:23.583Z,1.35
2023-01-29T21:20:55.209Z,1.27
2023-01-29T21:23:26.438Z,0.95
2023-01-29T21:26:04.764Z,1.10
2023-01-29T21:28:35.065Z,1.33
2023-01-29T21:31:11.213Z,1.20
2023-01-29T21:33:42.656Z,1.02
2023-01-29T21:36:12.979Z,1.10
2023-01-29T21:38:43.799Z,1.15
2023-01-29T21:41:14.026Z,1.52
2023-01-29T21:43:46.693Z,1.30
2023-01-29T21:46:17.232Z,1.30
2023-01-29T21:48:47.184Z,1.45
2023-01-29T21:51:18.916Z,1.30
2023-01-29T21:53:50.890Z,1.20
2023-01-29T21:56:21.095Z,1.25
2023-01-29T21:58:52.182Z,1.33
2023-01-29T22:01:37.337Z,1.77
2023-01-29T22:04:11.663Z,1.45
2023-01-29T22:06:41.810Z,1.25
2023-01-29T22:09:11.713Z,1.48
2023-01-29T22:11:43.454Z,1.40
2023-01-29T22:14:15.132Z,1.45
2023-01-29T22:16:47.916Z,1.25
2023-01-29T22:19:18.307Z,1.40
2023-01-29T22:21:48.056Z,1.58
2023-01-29T22:24:22.019Z,1.60
2023-01-29T22:26:53.589Z,1.48
2023-01-29T22:29:23.995Z,1.65
2023-01-29T22:31:54.221Z,1.60
2023-01-29T22:34:24.017Z,1.95
2023-01-29T22:36:54.955Z,1.58
2023-01-29T22:39:25.680Z,1.67
2023-01-29T22:41:55.946Z,1.50
2023-01-29T22:44:27.117Z,1.50
2023-01-29T22:46:57.395Z,1.88
2023-01-29T22:49:30.592Z,1.92
2023-01-29T22:52:13.424Z,1.58
2023-01-29T22:54:46.258Z,1.65
2023-01-29T22:57:17.091Z,1.63
2023-01-29T22:59:48.030Z,1.90
2023-01-29T23:02:19.037Z,1.65
2023-01-29T23:04:49.086Z,1.75
2023-01-29T23:07:18.863Z,1.55
2023-01-29T23:09:49.041Z,2.05
2023-01-29T23:12:19.113Z,1.80
2023-01-29T23:14:50.886Z,1.73
2023-01-29T23:17:21.187Z,1.67
2023-01-29T23:19:50.907Z,1.30
2023-01-29T23:22:23.213Z,1.75
2023-01-29T23:24:54.512Z,1.60
2023-01-29T23:27:25.388Z,1.60
2023-01-29T23:29:55.882Z,2.00
2023-01-29T23:32:26.770Z,1.50
2023-01-29T23:35:06.705Z,1.45
2023-01-29T23:37:38.029Z,1.52
2023-01-29T23:40:10.432Z,1.40
2023-01-29T23:42:40.645Z,1.42
2023-01-29T23:45:11.596Z,1.60
2023-01-29T23:47:42.437Z,2.05
2023-01-29T23:50:14.047Z,1.50
2023-01-29T23:52:45.602Z,1.50
2023-01-29T23:55:15.619Z,1.40
2023-01-29T23:57:45.322Z,1.98
